Time;durP1;ratioP1;P1;durP2;ratioP2;P2;SDS_P1;SDS_P2;PMS_P1;PMS_P2;Temp;Humidity;BMP_temperature;BMP_pressure;BME280_temperature;BME280_humidity;BME280_pressure;Samples;Min_cycle;Max_cycle;Signal;HPM_P1;HPM_P2
2023/08/28 00:00:39;;;;;;;5.80;3.22;;;16.10;99.90;;;;;;5033531;28;20403;-80
2023/08/28 00:03:04;;;;;;;7.07;3.30;;;16.10;99.90;;;;;;5032089;28;20030;-80
2023/08/28 00:05:31;;;;;;;4.72;3.30;;;16.00;99.90;;;;;;5032367;28;20030;-80
2023/08/28 00:07:57;;;;;;;5.82;2.78;;;16.10;99.90;;;;;;5050186;28;20479;-80
2023/08/28 00:10:24;;;;;;;8.00;2.83;;;16.00;99.90;;;;;;5031592;28;20116;-79
2023/08/28 00:12:50;;;;;;;5.43;3.00;;;16.00;99.90;;;;;;5028866;28;20022;-79
2023/08/28 00:15:15;;;;;;;4.80;2.80;;;16.00;99.90;;;;;;5031739;28;20021;-80
2023/08/28 00:17:41;;;;;;;6.40;3.10;;;16.00;99.90;;;;;;5049819;28;20029;-80
2023/08/28 00:20:08;;;;;;;3.67;3.00;;;15.90;99.90;;;;;;5031643;28;20025;-80
2023/08/28 00:22:35;;;;;;;5.22;3.08;;;15.90;99.90;;;;;;5047619;28;20025;-80
2023/08/28 00:25:02;;;;;;;3.58;3.08;;;15.90;99.90;;;;;;5045838;28;20152;-80
2023/08/28 00:27:29;;;;;;;6.18;2.83;;;15.90;99.90;;;;;;5049335;28;20399;-80
2023/08/28 00:29:54;;;;;;;3.35;2.85;;;15.80;99.90;;;;;;5033039;28;20553;-80
2023/08/28 00:32:20;;;;;;;5.25;2.67;;;15.80;99.90;;;;;;5032384;28;20049;-80
2023/08/28 00:34:47;;;;;;;5.05;2.60;;;15.80;99.90;;;;;;5032786;28;20108;-80
2023/08/28 00:37:12;;;;;;;3.65;2.40;;;15.80;99.90;;;;;;5031792;28;20488;-80
2023/08/28 00:39:38;;;;;;;7.00;2.88;;;15.80;99.90;;;;;;5031399;28;20030;-80
2023/08/28 00:42:04;;;;;;;6.65;3.47;;;15.80;99.90;;;;;;5015139;28;20036;-80
2023/08/28 00:44:30;;;;;;;7.60;3.28;;;15.70;99.90;;;;;;5015636;28;20106;-80
2023/08/28 00:46:56;;;;;;;4.07;2.90;;;15.70;99.90;;;;;;5032887;28;20116;-80
2023/08/28 00:49:22;;;;;;;5.38;2.60;;;15.70;99.90;;;;;;5048940;28;20025;-79
2023/08/28 00:51:49;;;;;;;4.68;2.63;;;15.70;99.90;;;;;;5049577;28;20025;-80
2023/08/28 00:54:15;;;;;;;5.80;3.60;;;15.70;99.90;;;;;;5040813;28;20025;-79
2023/08/28 00:56:42;;;;;;;10.45;3.50;;;15.70;99.90;;;;;;5050994;28;20055;-80
2023/08/28 00:59:08;;;;;;;3.47;3.00;;;15.70;99.90;;;;;;5046191;28;20033;-80
2023/08/28 01:01:34;;;;;;;9.68;3.03;;;15.60;99.90;;;;;;5030285;28;20032;-80
2023/08/28 01:04:00;;;;;;;4.13;3.50;;;15.60;99.90;;;;;;5032532;28;20030;-80
2023/08/28 01:06:35;;;;;;;7.88;3.40;;;15.50;99.90;;;;;;5031037;28;20037;-79
2023/08/28 01:09:32;;;;;;;7.50;3.72;;;15.50;99.90;;;;;;5025584;28;20049;-79
2023/08/28 01:12:36;;;;;;;6.38;3.17;;;15.50;99.90;;;;;;5027294;28;20087;-80
2023/08/28 01:15:15;;;;;;;7.60;2.90;;;15.50;99.90;;;;;;5032159;28;20026;-79
2023/08/28 01:17:42;;;;;;;3.88;3.47;;;15.50;99.90;;;;;;5032587;28;20033;-80
2023/08/28 01:20:15;;;;;;;5.72;3.33;;;15.50;99.90;;;;;;5032214;28;20369;-80
2023/08/28 01:23:05;;;;;;;6.22;3.75;;;15.50;99.90;;;;;;5031822;28;20471;-80
2023/08/28 01:25:32;;;;;;;4.57;3.58;;;15.40;99.90;;;;;;5029368;28;20025;-80
2023/08/28 01:27:59;;;;;;;5.43;3.38;;;15.40;99.90;;;;;;5043194;28;20419;-80
2023/08/28 01:30:25;;;;;;;5.93;2.95;;;15.40;99.90;;;;;;5031239;28;20028;-80
2023/08/28 01:32:51;;;;;;;5.65;3.45;;;15.40;99.90;;;;;;5031500;28;20403;-79
2023/08/28 01:35:26;;;;;;;6.70;3.60;;;15.40;99.90;;;;;;5030553;28;20029;-79
2023/08/28 01:38:05;;;;;;;7.00;3.72;;;15.30;99.90;;;;;;5032415;28;20124;-79
2023/08/28 01:40:50;;;;;;;5.05;4.00;;;15.40;99.90;;;;;;5031767;28;20029;-80
2023/08/28 01:43:21;;;;;;;6.28;4.13;;;15.40;99.90;;;;;;5030861;28;20087;-80
2023/08/28 01:45:49;;;;;;;4.75;3.72;;;15.40;99.90;;;;;;5030146;28;20035;-80
2023/08/28 01:48:15;;;;;;;5.53;3.20;;;15.40;99.90;;;;;;5031123;28;20483;-80
2023/08/28 01:50:40;;;;;;;5.90;3.08;;;15.40;99.90;;;;;;5030302;28;20130;-80
2023/08/28 01:53:06;;;;;;;5.53;3.60;;;15.30;99.90;;;;;;5032172;28;20024;-79
2023/08/28 01:55:56;;;;;;;6.50;3.63;;;15.30;99.90;;;;;;5031791;28;20041;-79
2023/08/28 01:58:22;;;;;;;5.25;4.03;;;15.30;99.90;;;;;;5013066;28;20511;-79
2023/08/28 02:00:48;;;;;;;5.63;4.45;;;15.30;99.90;;;;;;5025541;28;20030;-79
2023/08/28 02:03:14;;;;;;;7.45;5.15;;;15.20;99.90;;;;;;5039963;28;20029;-79
2023/08/28 02:05:39;;;;;;;6.82;5.25;;;15.20;99.90;;;;;;5029850;28;20033;-79
2023/08/28 02:08:05;;;;;;;6.30;4.72;;;15.20;99.90;;;;;;5028324;28;20026;-79
2023/08/28 02:10:31;;;;;;;5.30;4.90;;;15.20;99.90;;;;;;5045257;28;20022;-79
2023/08/28 02:12:57;;;;;;;7.35;4.75;;;15.20;99.90;;;;;;5033004;28;20025;-79
2023/08/28 02:15:22;;;;;;;6.05;5.43;;;15.20;99.90;;;;;;5031055;28;20100;-79
2023/08/28 02:17:48;;;;;;;4.20;3.80;;;15.20;99.90;;;;;;5031871;28;20033;-79
2023/08/28 02:20:14;;;;;;;5.63;3.75;;;15.10;99.90;;;;;;5048673;28;20399;-79
2023/08/28 02:22:40;;;;;;;6.60;4.43;;;15.10;99.90;;;;;;5048358;28;20029;-79
2023/08/28 02:25:06;;;;;;;5.78;4.68;;;15.00;99.90;;;;;;5048254;28;20060;-79
2023/08/28 02:27:31;;;;;;;6.38;4.30;;;15.10;99.90;;;;;;5048845;28;20084;-79
2023/08/28 02:29:57;;;;;;;6.18;5.00;;;15.10;99.90;;;;;;5031791;28;20018;-79
2023/08/28 02:32:26;;;;;;;5.55;4.68;;;15.00;99.90;;;;;;5031092;28;20030;-79
2023/08/28 02:34:52;;;;;;;6.13;4.80;;;15.00;99.90;;;;;;5031481;28;20032;-79
2023/08/28 02:37:17;;;;;;;7.70;5.65;;;15.00;99.90;;;;;;5047006;28;20034;-79
2023/08/28 02:39:43;;;;;;;5.97;5.20;;;15.10;99.90;;;;;;5048773;28;20022;-79
2023/08/28 02:42:09;;;;;;;4.90;4.53;;;15.10;99.90;;;;;;5033564;28;20029;-79
2023/08/28 02:44:35;;;;;;;5.72;4.85;;;15.00;99.90;;;;;;5035880;28;20056;-79
2023/08/28 02:47:00;;;;;;;5.55;4.93;;;15.00;99.90;;;;;;5035295;28;20025;-79
2023/08/28 02:49:26;;;;;;;8.52;5.80;;;14.90;99.90;;;;;;5051663;28;20021;-79
2023/08/28 02:51:52;;;;;;;5.53;5.03;;;14.90;99.90;;;;;;5052473;28;20017;-79
2023/08/28 02:54:18;;;;;;;7.28;5.57;;;14.90;99.90;;;;;;5035439;28;20029;-79
2023/08/28 02:56:44;;;;;;;6.13;5.65;;;14.80;99.90;;;;;;5034130;28;20057;-79
2023/08/28 02:59:09;;;;;;;6.88;4.65;;;14.90;99.90;;;;;;5036651;28;20107;-78
2023/08/28 03:01:35;;;;;;;6.38;4.55;;;14.90;99.90;;;;;;5036505;28;20025;-79
2023/08/28 03:04:04;;;;;;;7.90;5.18;;;14.90;99.90;;;;;;5050842;28;20080;-79
2023/08/28 03:06:37;;;;;;;7.28;5.25;;;14.90;99.90;;;;;;5034382;28;20041;-78
2023/08/28 03:09:04;;;;;;;;;;;14.90;99.90;;;;;;5033174;28;20021;-79
2023/08/28 03:11:29;;;;;;;8.30;5.05;;;14.90;99.90;;;;;;5025861;28;19986;-79
2023/08/28 03:13:55;;;;;;;6.38;5.75;;;14.90;99.90;;;;;;5036380;28;20483;-79
2023/08/28 03:16:21;;;;;;;5.25;4.85;;;14.90;99.90;;;;;;5050573;28;20376;-78
2023/08/28 03:18:47;;;;;;;6.05;5.50;;;14.90;99.90;;;;;;5035007;28;20476;-79
2023/08/28 03:21:13;;;;;;;6.10;5.55;;;14.90;99.90;;;;;;5035335;28;20025;-79
2023/08/28 03:23:38;;;;;;;8.93;6.38;;;14.80;99.90;;;;;;5034701;28;20124;-79
2023/08/28 03:26:04;;;;;;;12.02;6.20;;;14.80;99.90;;;;;;5035357;28;20033;-79
2023/08/28 03:28:30;;;;;;;8.77;6.65;;;14.70;99.90;;;;;;5034654;28;20021;-78
2023/08/28 03:30:57;;;;;;;6.93;6.28;;;14.70;99.90;;;;;;5034581;28;20120;-78
2023/08/28 03:33:23;;;;;;;7.90;7.10;;;14.70;99.90;;;;;;5032799;28;20084;-78
2023/08/28 03:35:49;;;;;;;8.45;7.50;;;14.70;99.90;;;;;;5036275;28;20028;-78
2023/08/28 03:38:14;;;;;;;8.52;7.38;;;14.70;99.90;;;;;;5036000;28;20030;-79
2023/08/28 03:40:40;;;;;;;11.45;7.80;;;14.70;99.90;;;;;;5033744;28;20466;-79
2023/08/28 03:43:06;;;;;;;11.43;8.35;;;14.70;99.90;;;;;;5032690;28;20076;-78
2023/08/28 03:45:32;;;;;;;13.38;8.95;;;14.70;99.90;;;;;;5034109;28;20021;-79
2023/08/28 03:47:57;;;;;;;12.27;9.95;;;14.70;99.90;;;;;;5034832;28;20080;-78
2023/08/28 03:50:24;;;;;;;12.63;9.45;;;14.70;99.90;;;;;;5034711;28;20029;-79
2023/08/28 03:52:50;;;;;;;11.30;9.85;;;14.70;99.90;;;;;;5036151;28;20491;-78
2023/08/28 03:55:16;;;;;;;12.93;8.85;;;14.70;99.90;;;;;;5034395;28;20056;-78
2023/08/28 03:57:42;;;;;;;12.27;10.35;;;14.80;99.90;;;;;;5034630;28;20468;-78
2023/08/28 04:00:12;;;;;;;10.32;9.27;;;14.80;99.90;;;;;;5049721;28;20483;-79
2023/08/28 04:02:39;;;;;;;12.25;9.52;;;14.90;99.90;;;;;;5035391;28;20032;-79
2023/08/28 04:05:06;;;;;;;11.20;9.90;;;14.80;99.90;;;;;;5032554;28;20025;-79
2023/08/28 04:07:32;;;;;;;11.43;8.77;;;14.90;99.90;;;;;;5032279;28;20083;-78
2023/08/28 04:10:01;;;;;;;11.57;8.02;;;14.90;99.90;;;;;;5032771;28;20468;-79
2023/08/28 04:12:27;;;;;;;8.77;7.88;;;14.90;99.90;;;;;;5034248;28;20029;-79
2023/08/28 04:14:52;;;;;;;13.15;8.95;;;14.90;99.90;;;;;;5018740;28;20627;-79
2023/08/28 04:17:18;;;;;;;10.07;8.43;;;15.00;99.90;;;;;;5014475;28;20113;-79
2023/08/28 04:19:45;;;;;;;9.93;8.93;;;15.00;99.90;;;;;;5013911;28;20022;-79
2023/08/28 04:22:11;;;;;;;11.10;8.20;;;15.00;99.90;;;;;;5013424;28;20180;-78
2023/08/28 04:24:36;;;;;;;11.25;9.38;;;15.00;99.90;;;;;;5018733;28;20678;-79
2023/08/28 04:27:02;;;;;;;11.18;8.38;;;15.10;99.90;;;;;;5034237;28;20026;-79
2023/08/28 04:29:28;;;;;;;10.45;9.32;;;15.10;99.90;;;;;;5034380;28;20018;-79
2023/08/28 04:31:54;;;;;;;12.38;9.40;;;15.10;99.90;;;;;;5034015;28;20057;-79
2023/08/28 04:34:20;;;;;;;10.10;8.82;;;15.20;99.90;;;;;;5033634;28;20025;-79
2023/08/28 04:36:45;;;;;;;12.68;9.50;;;15.10;99.90;;;;;;5034210;28;20042;-79
2023/08/28 04:39:11;;;;;;;9.70;8.70;;;15.10;99.90;;;;;;5034852;28;20026;-79
2023/08/28 04:41:37;;;;;;;11.30;9.63;;;15.10;99.90;;;;;;5030616;28;20080;-78
2023/08/28 04:44:03;;;;;;;10.48;9.48;;;15.20;99.90;;;;;;5033845;28;20032;-78
2023/08/28 04:46:29;;;;;;;11.68;9.27;;;15.30;99.90;;;;;;5033592;28;20021;-78
2023/08/28 04:48:54;;;;;;;9.80;8.10;;;15.30;99.90;;;;;;5033895;28;20021;-79
2023/08/28 04:51:20;;;;;;;13.02;8.43;;;15.20;99.90;;;;;;5033722;28;20040;-79
2023/08/28 04:53:46;;;;;;;9.45;8.38;;;15.30;99.90;;;;;;5033819;28;20021;-78
2023/08/28 04:56:12;;;;;;;8.75;7.35;;;15.30;99.90;;;;;;5034448;28;20036;-79
2023/08/28 04:58:37;;;;;;;10.27;7.53;;;15.40;99.90;;;;;;5032505;28;20029;-79
2023/08/28 05:01:03;;;;;;;8.27;7.50;;;15.30;99.90;;;;;;5027262;28;20036;-79
2023/08/28 05:03:29;;;;;;;12.40;8.07;;;15.40;99.90;;;;;;5030584;28;20021;-79
2023/08/28 05:05:54;;;;;;;9.65;7.63;;;15.40;99.90;;;;;;5032178;28;20043;-79
2023/08/28 05:08:20;;;;;;;9.57;8.05;;;15.40;99.90;;;;;;5029664;28;20017;-79
2023/08/28 05:10:46;;;;;;;9.85;8.48;;;15.40;99.90;;;;;;5041685;28;20057;-79
2023/08/28 05:13:13;;;;;;;11.23;8.60;;;15.50;99.90;;;;;;5025388;28;20084;-79
2023/08/28 05:15:38;;;;;;;8.75;7.93;;;15.50;99.90;;;;;;5032642;28;20037;-79
2023/08/28 05:18:04;;;;;;;9.20;8.27;;;15.50;99.90;;;;;;5026155;28;20095;-79
2023/08/28 05:20:30;;;;;;;8.48;7.68;;;15.50;99.90;;;;;;5043171;28;20029;-79
2023/08/28 05:22:56;;;;;;;9.50;7.72;;;15.50;99.90;;;;;;5032000;28;20026;-78
2023/08/28 05:25:21;;;;;;;10.30;8.65;;;15.60;99.90;;;;;;5031210;28;20025;-79
2023/08/28 05:27:47;;;;;;;9.20;6.65;;;15.60;99.90;;;;;;5029521;28;20061;-79
2023/08/28 05:30:13;;;;;;;9.88;7.22;;;15.50;99.90;;;;;;5028834;28;20080;-79
2023/08/28 05:32:39;;;;;;;8.85;7.55;;;15.50;99.90;;;;;;5022446;28;20022;-79
2023/08/28 05:35:06;;;;;;;9.20;7.78;;;15.60;99.90;;;;;;5025602;28;20026;-79
2023/08/28 05:37:32;;;;;;;11.55;8.30;;;15.60;99.90;;;;;;5030724;28;20032;-79
2023/08/28 05:39:57;;;;;;;9.52;8.57;;;15.70;99.90;;;;;;5030456;28;20029;-79
2023/08/28 05:42:23;;;;;;;8.68;7.88;;;15.70;99.90;;;;;;5028023;28;20022;-78
2023/08/28 05:44:49;;;;;;;9.98;8.98;;;15.80;99.90;;;;;;5014727;28;20360;-79
2023/08/28 05:47:15;;;;;;;15.20;8.35;;;15.80;99.90;;;;;;5023626;28;20057;-79
2023/08/28 05:49:41;;;;;;;14.95;10.00;;;15.80;99.90;;;;;;5008364;28;20503;-79
2023/08/28 05:52:06;;;;;;;13.13;9.75;;;15.80;99.90;;;;;;5011699;28;20472;-78
2023/08/28 05:54:32;;;;;;;12.60;7.55;;;15.90;99.90;;;;;;5012152;28;20117;-79
2023/08/28 05:56:58;;;;;;;8.55;6.53;;;15.90;99.90;;;;;;5012934;28;20032;-79
2023/08/28 05:59:24;;;;;;;9.98;8.40;;;15.90;99.90;;;;;;5026765;28;20022;-79
2023/08/28 06:01:49;;;;;;;12.35;10.45;;;15.90;99.90;;;;;;5022970;28;20057;-79
2023/08/28 06:04:15;;;;;;;17.80;10.75;;;16.00;99.90;;;;;;5020417;28;20053;-79
2023/08/28 06:06:41;;;;;;;17.23;10.05;;;16.00;99.90;;;;;;5048051;28;20025;-79
2023/08/28 06:09:07;;;;;;;11.80;9.23;;;16.00;99.90;;;;;;5048187;28;20107;-79
2023/08/28 06:11:33;;;;;;;11.95;10.02;;;16.00;99.90;;;;;;5031667;28;20034;-79
2023/08/28 06:14:00;;;;;;;11.13;10.00;;;16.00;99.90;;;;;;5030703;28;20014;-79
2023/08/28 06:16:26;;;;;;;15.82;10.02;;;16.00;99.90;;;;;;5032594;28;20116;-79
2023/08/28 06:18:52;;;;;;;10.43;8.40;;;16.10;99.90;;;;;;5041103;28;20025;-80
2023/08/28 06:21:17;;;;;;;13.93;8.88;;;16.10;99.90;;;;;;5017943;28;20155;-79
2023/08/28 06:23:43;;;;;;;11.02;8.07;;;16.00;99.90;;;;;;5030509;28;20087;-79
2023/08/28 06:26:09;;;;;;;11.85;8.07;;;16.00;99.90;;;;;;5033990;28;20025;-79
2023/08/28 06:28:35;;;;;;;13.85;9.45;;;16.10;99.90;;;;;;5051606;28;20036;-79
2023/08/28 06:31:04;;;;;;;12.85;9.73;;;16.10;99.90;;;;;;5030994;28;20034;-79
2023/08/28 06:33:29;;;;;;;10.88;9.30;;;16.10;99.90;;;;;;5014220;28;20053;-79
2023/08/28 06:35:55;;;;;;;11.35;9.20;;;16.20;99.90;;;;;;5015424;28;20507;-80
2023/08/28 06:38:21;;;;;;;17.13;10.13;;;16.20;99.90;;;;;;5035537;28;20036;-80
2023/08/28 06:40:52;;;;;;;14.68;10.02;;;16.20;99.90;;;;;;5052518;28;20036;-79
2023/08/28 06:43:18;;;;;;;13.10;9.68;;;16.30;99.90;;;;;;5052907;28;20025;-79
2023/08/28 06:45:45;;;;;;;14.75;11.18;;;16.30;99.90;;;;;;5035932;28;20548;-80
2023/08/28 06:48:11;;;;;;;11.07;9.98;;;16.30;99.90;;;;;;5036188;28;20021;-80
2023/08/28 06:50:37;;;;;;;11.52;9.82;;;16.40;99.90;;;;;;5035384;28;20029;-79
2023/08/28 06:53:04;;;;;;;16.50;10.40;;;16.50;99.90;;;;;;5034935;28;20052;-80
2023/08/28 06:55:32;;;;;;;10.82;9.73;;;16.50;99.90;;;;;;5035699;28;20479;-80
2023/08/28 06:57:58;;;;;;;13.43;10.57;;;16.50;99.90;;;;;;5027566;28;20029;-80
2023/08/28 07:00:24;;;;;;;14.93;10.70;;;16.50;99.90;;;;;;5028706;28;20072;-80
2023/08/28 07:02:50;;;;;;;16.83;10.00;;;16.50;99.90;;;;;;5023394;28;20022;-80
2023/08/28 07:05:16;;;;;;;12.73;10.40;;;16.50;99.90;;;;;;5027200;28;20052;-79
2023/08/28 07:07:42;;;;;;;12.30;10.00;;;16.60;99.90;;;;;;5030834;28;20053;-80
2023/08/28 07:10:08;;;;;;;11.75;10.48;;;16.70;99.90;;;;;;5032853;28;20021;-79
2023/08/28 07:12:34;;;;;;;16.33;11.20;;;16.70;99.90;;;;;;5034088;28;20493;-80
2023/08/28 07:15:26;;;;;;;13.02;10.95;;;16.70;99.90;;;;;;5035748;28;20079;-80
2023/08/28 07:17:52;;;;;;;15.02;10.65;;;16.80;99.90;;;;;;5045673;28;20042;-79
2023/08/28 07:20:18;;;;;;;12.48;10.43;;;16.80;99.90;;;;;;5034916;28;20030;-79
2023/08/28 07:22:44;;;;;;;16.27;11.63;;;16.80;99.90;;;;;;5035218;28;20017;-80
2023/08/28 07:25:10;;;;;;;14.27;10.32;;;16.90;99.90;;;;;;5021032;28;20038;-80
2023/08/28 07:27:36;;;;;;;20.27;12.38;;;17.00;99.90;;;;;;5017670;28;20133;-80
2023/08/28 07:30:04;;;;;;;13.85;10.30;;;17.00;99.90;;;;;;5014790;28;20504;-80
2023/08/28 07:32:32;;;;;;;11.82;9.95;;;16.90;99.90;;;;;;5017653;28;20018;-80
2023/08/28 07:35:00;;;;;;;15.13;10.57;;;17.10;99.90;;;;;;5023697;28;20034;-80
2023/08/28 07:37:29;;;;;;;18.27;12.35;;;17.00;99.90;;;;;;5031983;28;20032;-80
2023/08/28 07:39:55;;;;;;;15.40;10.82;;;17.10;99.90;;;;;;5056674;28;20032;-80
2023/08/28 07:42:21;;;;;;;14.07;11.45;;;17.20;99.90;;;;;;5032222;28;20045;-81
2023/08/28 07:44:50;;;;;;;13.50;11.77;;;17.10;99.90;;;;;;5025314;28;20030;-80
2023/08/28 07:47:17;;;;;;;15.00;12.20;;;17.20;99.90;;;;;;5037892;28;20563;-80
2023/08/28 07:49:43;;;;;;;16.13;11.73;;;17.30;99.90;;;;;;5038901;28;20029;-80
2023/08/28 07:52:09;;;;;;;13.25;11.70;;;17.30;99.90;;;;;;5039143;28;20017;-80
2023/08/28 07:54:36;;;;;;;13.88;12.43;;;17.40;99.90;;;;;;5041232;28;20018;-80
2023/08/28 07:57:06;;;;;;;16.13;12.95;;;17.50;99.90;;;;;;5059211;28;20025;-81
2023/08/28 07:59:32;;;;;;;19.23;13.07;;;17.50;99.90;;;;;;5052079;28;20029;-81
2023/08/28 08:01:57;;;;;;;12.95;11.10;;;17.60;99.90;;;;;;5030621;28;20454;-81
2023/08/28 08:04:26;;;;;;;16.35;12.48;;;17.60;99.90;;;;;;5021630;28;20032;-81
2023/08/28 08:06:52;;;;;;;14.20;12.02;;;17.80;99.90;;;;;;5038425;28;20034;-81
2023/08/28 08:09:18;;;;;;;17.38;12.75;;;17.80;99.90;;;;;;5045809;28;20085;-81
2023/08/28 08:11:45;;;;;;;14.00;12.40;;;17.90;99.90;;;;;;5032206;28;20460;-81
2023/08/28 08:14:23;;;;;;;13.93;11.73;;;17.90;99.90;;;;;;5040748;28;20018;-80
2023/08/28 08:16:52;;;;;;;17.40;12.38;;;17.90;99.90;;;;;;5041068;28;20595;-80
2023/08/28 08:19:19;;;;;;;14.25;11.93;;;17.90;99.90;;;;;;5025294;28;20029;-80
2023/08/28 08:21:45;;;;;;;16.10;11.35;;;17.90;99.90;;;;;;5023272;28;20033;-81
2023/08/28 08:24:10;;;;;;;16.02;12.48;;;17.90;99.90;;;;;;5023330;28;20022;-80
2023/08/28 08:26:36;;;;;;;15.93;12.98;;;17.80;99.90;;;;;;5032662;28;20084;-81
2023/08/28 08:29:02;;;;;;;15.95;11.90;;;17.90;99.90;;;;;;5032369;28;20018;-80
2023/08/28 08:31:28;;;;;;;19.15;12.23;;;18.00;99.90;;;;;;5022420;28;20054;-80
2023/08/28 08:33:53;;;;;;;13.35;11.82;;;18.10;99.90;;;;;;5018236;28;20017;-80
2023/08/28 08:36:19;;;;;;;14.65;12.05;;;18.10;99.90;;;;;;5050234;28;20040;-80
2023/08/28 08:38:45;;;;;;;14.45;10.07;;;18.20;99.90;;;;;;5034801;28;20067;-80
2023/08/28 08:41:11;;;;;;;11.85;9.18;;;18.30;99.90;;;;;;5033191;28;20056;-80
2023/08/28 08:43:37;;;;;;;10.60;9.52;;;18.40;99.90;;;;;;5035779;28;20231;-80
2023/08/28 08:46:07;;;;;;;9.95;8.88;;;18.60;99.90;;;;;;5051326;28;20434;-80
2023/08/28 08:48:36;;;;;;;12.18;8.45;;;18.80;99.90;;;;;;5031342;28;20026;-80
2023/08/28 08:51:04;;;;;;;9.80;7.35;;;18.90;99.90;;;;;;5035085;28;20021;-80
2023/08/28 08:53:53;;;;;;;9.38;8.15;;;19.10;99.90;;;;;;5032228;28;20021;-80
2023/08/28 08:56:22;;;;;;;8.63;7.78;;;19.20;99.90;;;;;;5033353;28;20176;-80
2023/08/28 08:58:49;;;;;;;9.95;6.88;;;19.30;99.90;;;;;;5034563;28;20024;-80
2023/08/28 09:01:25;;;;;;;9.70;8.70;;;19.50;99.90;;;;;;5087056;27;20433;-71
2023/08/28 09:03:51;;;;;;;11.27;7.45;;;19.70;99.90;;;;;;5076835;28;20035;-71
2023/08/28 09:06:17;;;;;;;8.23;7.00;;;19.70;99.90;;;;;;5068163;28;20029;-71
2023/08/28 09:08:43;;;;;;;9.30;6.82;;;19.70;99.90;;;;;;5054462;28;20051;-71
2023/08/28 09:11:09;;;;;;;7.28;6.07;;;19.60;99.90;;;;;;5062406;28;20521;-71
2023/08/28 09:13:35;;;;;;;7.18;5.78;;;19.60;99.90;;;;;;5069161;28;20616;-71
2023/08/28 09:16:03;;;;;;;31.42;18.42;;;19.60;99.90;;;;;;5054432;28;20029;-71
2023/08/28 09:18:29;;;;;;;16.48;9.75;;;19.50;99.90;;;;;;5049160;28;20041;-71
2023/08/28 09:21:09;;;;;;;6.57;4.80;;;19.50;99.90;;;;;;5049502;28;20476;-71
2023/08/28 09:23:41;;;;;;;8.93;6.20;;;19.60;99.90;;;;;;5068626;28;20029;-71
2023/08/28 09:26:07;;;;;;;13.23;7.72;;;19.60;99.90;;;;;;5069369;28;20024;-71
2023/08/28 09:28:32;;;;;;;5.95;5.40;;;19.60;99.90;;;;;;5069155;28;20359;-71
2023/08/28 09:30:58;;;;;;;6.65;4.30;;;19.50;99.90;;;;;;5080451;28;20036;-71
2023/08/28 09:33:24;;;;;;;6.63;3.90;;;19.50;99.90;;;;;;5089626;28;20028;-71
2023/08/28 09:35:49;;;;;;;5.68;4.47;;;19.50;99.90;;;;;;5088706;28;20029;-71
2023/08/28 09:38:15;;;;;;;9.52;4.32;;;19.50;99.90;;;;;;5079309;28;20094;-71
2023/08/28 09:40:41;;;;;;;3.83;3.53;;;19.60;99.90;;;;;;5068603;28;20155;-71
2023/08/28 09:43:17;;;;;;;4.95;4.45;;;19.50;99.90;;;;;;5067766;28;20031;-73
2023/08/28 09:45:44;;;;;;;5.68;3.70;;;19.40;99.90;;;;;;5068126;28;20358;-72
2023/08/28 09:48:11;;;;;;;4.88;3.60;;;19.50;99.90;;;;;;5068845;28;20024;-73
2023/08/28 09:50:42;;;;;;;6.30;3.17;;;19.40;99.90;;;;;;5068493;28;20592;-74
2023/08/28 09:53:12;;;;;;;4.78;2.20;;;19.50;99.90;;;;;;5067495;28;20021;-72
2023/08/28 09:55:53;;;;;;;5.00;2.63;;;19.60;99.90;;;;;;5068455;28;20170;-73
2023/08/28 09:58:21;;;;;;;2.90;1.73;;;19.50;99.90;;;;;;5068256;28;20027;-72
2023/08/28 10:00:47;;;;;;;2.63;1.98;;;19.50;99.90;;;;;;5067547;28;20037;-74
2023/08/28 10:03:14;;;;;;;4.07;2.47;;;19.50;99.90;;;;;;5067234;28;20358;-73
2023/08/28 10:05:44;;;;;;;6.30;2.22;;;19.50;99.90;;;;;;5063974;28;20420;-72
2023/08/28 10:08:14;;;;;;;4.95;1.88;;;19.50;99.90;;;;;;5065562;28;20056;-73
2023/08/28 10:10:45;;;;;;;3.50;1.60;;;19.40;99.90;;;;;;5058553;28;20043;-72
2023/08/28 10:13:16;;;;;;;3.38;1.38;;;19.40;99.90;;;;;;5049936;28;20024;-74
2023/08/28 10:15:59;;;;;;;4.70;3.28;;;19.40;99.90;;;;;;5054780;28;20493;-71
2023/08/28 10:19:03;;;;;;;4.57;2.00;;;19.40;99.90;;;;;;5055059;28;20029;-72
2023/08/28 10:21:30;;;;;;;2.92;1.63;;;19.40;99.90;;;;;;5040879;28;20084;-73
2023/08/28 10:23:56;;;;;;;5.47;1.80;;;19.50;99.90;;;;;;5054144;28;20062;-71
2023/08/28 10:26:23;;;;;;;2.35;1.30;;;19.60;99.90;;;;;;5054833;28;20029;-72
2023/08/28 10:28:51;;;;;;;2.38;1.25;;;19.60;99.90;;;;;;5054768;28;20017;-72
2023/08/28 10:31:19;;;;;;;1.85;1.30;;;19.70;99.90;;;;;;5053553;28;20123;-72
2023/08/28 10:33:47;;;;;;;3.03;1.38;;;19.70;99.90;;;;;;5054652;28;20013;-72
2023/08/28 10:36:15;;;;;;;1.73;1.10;;;19.70;99.90;;;;;;5054611;28;20021;-71
2023/08/28 10:38:42;;;;;;;3.90;2.08;;;19.80;99.90;;;;;;5054400;28;20032;-71
2023/08/28 10:41:09;;;;;;;2.10;1.00;;;19.90;99.90;;;;;;5054481;28;20120;-72
2023/08/28 10:43:35;;;;;;;4.22;1.33;;;19.90;99.90;;;;;;5054552;28;20025;-72
2023/08/28 10:46:03;;;;;;;2.30;1.20;;;20.10;99.90;;;;;;5054515;28;20036;-72
2023/08/28 10:48:29;;;;;;;2.03;1.52;;;20.20;99.90;;;;;;5053975;28;20025;-71
2023/08/28 10:50:59;;;;;;;3.85;1.25;;;20.20;99.90;;;;;;5054522;28;20033;-71
2023/08/28 10:53:25;;;;;;;2.97;1.83;;;20.20;99.90;;;;;;5053978;28;20513;-72
2023/08/28 10:56:01;;;;;;;2.55;1.67;;;20.30;99.90;;;;;;5054087;28;20107;-71
2023/08/28 10:58:30;;;;;;;3.72;1.40;;;20.30;99.90;;;;;;5053696;28;20021;-71
2023/08/28 11:01:15;;;;;;;1.63;1.48;;;20.30;99.90;;;;;;5054082;28;20055;-71
2023/08/28 11:03:52;;;;;;;7.07;2.08;;;20.40;99.90;;;;;;5054180;28;20025;-71
2023/08/28 11:06:39;;;;;;;2.53;1.73;;;20.40;99.90;;;;;;5054308;28;20036;-71
2023/08/28 11:09:27;;;;;;;5.05;1.80;;;20.50;99.90;;;;;;5050204;28;20109;-71
2023/08/28 11:12:15;;;;;;;2.78;2.50;;;20.50;99.90;;;;;;5053832;28;20027;-71
2023/08/28 11:14:53;;;;;;;2.83;2.50;;;20.50;99.90;;;;;;5053737;28;20107;-72
2023/08/28 11:17:20;;;;;;;3.92;3.10;;;20.50;99.90;;;;;;5053476;28;20028;-72
2023/08/28 11:19:55;;;;;;;3.08;2.20;;;20.30;99.90;;;;;;5053790;28;20569;-71
2023/08/28 11:22:47;;;;;;;1.92;1.55;;;20.30;99.90;;;;;;5053564;28;20075;-71
2023/08/28 11:25:34;;;;;;;4.50;1.83;;;20.30;99.90;;;;;;5033358;28;20029;-72
2023/08/28 11:28:00;;;;;;;2.30;1.88;;;20.40;99.90;;;;;;5048500;28;20138;-72
2023/08/28 11:30:26;;;;;;;2.95;1.60;;;20.50;99.90;;;;;;5052113;28;20049;-72
2023/08/28 11:32:55;;;;;;;2.55;1.50;;;20.50;99.90;;;;;;5053391;28;20124;-71
2023/08/28 11:35:21;;;;;;;2.00;1.42;;;20.30;99.90;;;;;;5053640;28;20462;-72
2023/08/28 11:37:55;;;;;;;1.58;1.48;;;20.40;99.90;;;;;;5053417;28;20017;-72
2023/08/28 11:40:23;;;;;;;2.10;1.77;;;20.40;99.90;;;;;;5053410;28;20036;-72
2023/08/28 11:43:00;;;;;;;2.65;1.95;;;20.40;99.90;;;;;;5053373;28;20017;-72
2023/08/28 11:45:25;;;;;;;2.17;2.00;;;20.50;99.90;;;;;;5053256;28;20082;-72
2023/08/28 11:47:51;;;;;;;3.15;2.85;;;20.70;99.90;;;;;;5052006;28;20029;-72
2023/08/28 11:50:20;;;;;;;4.43;3.00;;;20.70;99.90;;;;;;5051612;28;20031;-71
2023/08/28 11:52:50;;;;;;;4.43;2.20;;;20.80;99.90;;;;;;5053208;28;20071;-72
2023/08/28 11:55:16;;;;;;;4.97;2.97;;;20.70;99.90;;;;;;5053066;28;20086;-72
2023/08/28 11:57:43;;;;;;;2.92;2.58;;;20.70;99.90;;;;;;5051614;28;20021;-72
2023/08/28 12:00:14;;;;;;;6.28;2.70;;;20.70;99.90;;;;;;5052804;28;20056;-72
2023/08/28 12:02:42;;;;;;;4.25;3.20;;;20.80;99.90;;;;;;5051627;28;20104;-72
2023/08/28 12:05:09;;;;;;;6.63;4.38;;;20.80;99.90;;;;;;5048456;28;20842;-72
2023/08/28 12:07:35;;;;;;;8.73;4.57;;;20.80;99.90;;;;;;5045964;28;20381;-72
2023/08/28 12:10:01;;;;;;;4.97;4.53;;;21.00;99.90;;;;;;5046248;28;20024;-72
2023/08/28 12:12:27;;;;;;;8.15;5.68;;;20.90;99.90;;;;;;5047104;28;20027;-73
2023/08/28 12:14:53;;;;;;;7.70;5.80;;;21.00;99.90;;;;;;5050439;28;20071;-71
2023/08/28 12:17:23;;;;;;;6.03;4.40;;;20.90;99.90;;;;;;5051987;28;20037;-73
2023/08/28 12:19:52;;;;;;;3.40;3.08;;;21.00;99.90;;;;;;5052595;28;20063;-72
2023/08/28 12:22:22;;;;;;;6.15;3.33;;;20.80;99.90;;;;;;5052692;28;20099;-72
2023/08/28 12:24:49;;;;;;;4.80;3.15;;;20.70;99.90;;;;;;5052558;28;20033;-73
2023/08/28 12:27:17;;;;;;;3.85;3.42;;;20.60;99.90;;;;;;5051506;28;20036;-72
2023/08/28 12:29:43;;;;;;;3.35;3.13;;;20.50;99.90;;;;;;5052275;28;20167;-72
2023/08/28 12:32:17;;;;;;;3.60;3.30;;;20.40;99.90;;;;;;5051795;28;20550;-75
2023/08/28 12:34:44;;;;;;;3.33;3.13;;;20.40;99.90;;;;;;5051889;28;20021;-73
2023/08/28 12:37:13;;;;;;;5.18;3.17;;;20.30;99.90;;;;;;5050004;28;20036;-74
2023/08/28 12:39:52;;;;;;;4.15;3.63;;;20.10;99.90;;;;;;5047286;28;20044;-75
2023/08/28 12:42:19;;;;;;;6.35;3.63;;;20.10;99.90;;;;;;5050289;28;20155;-74
2023/08/28 12:44:45;;;;;;;3.90;3.20;;;20.00;99.90;;;;;;5051809;28;20021;-72